createdAt,value
2018-07-19T00:02:16.009Z,7.65
2018-07-19T00:04:45.431Z,7.95
2018-07-19T00:07:14.971Z,8.50
2018-07-19T00:09:44.335Z,7.85
2018-07-19T00:12:13.814Z,8.25
2018-07-19T00:14:43.150Z,9.17
2018-07-19T00:17:13.106Z,8.03
2018-07-19T00:19:42.758Z,7.75
2018-07-19T00:22:12.228Z,7.15
2018-07-19T00:24:41.510Z,8.85
2018-07-19T00:27:10.870Z,8.43
2018-07-19T00:29:40.279Z,8.17
2018-07-19T00:32:09.761Z,8.75
2018-07-19T00:34:39.358Z,9.00
2018-07-19T00:37:08.879Z,8.93
2018-07-19T00:39:38.385Z,8.20
2018-07-19T00:42:11.140Z,8.35
2018-07-19T00:44:41.224Z,8.30
2018-07-19T00:47:10.584Z,8.20
2018-07-19T00:49:40.074Z,10.30
2018-07-19T00:52:09.413Z,8.85
2018-07-19T00:54:38.758Z,8.40
2018-07-19T00:59:36.628Z,8.80
2018-07-19T01:09:32.911Z,7.90
2018-07-19T01:12:02.166Z,9.20
2018-07-19T01:16:59.749Z,9.20
2018-07-19T01:21:57.739Z,9.70
2018-07-19T01:39:18.171Z,10.20
2018-07-19T01:42:24.451Z,9.60
2018-07-19T01:44:53.862Z,9.50
2018-07-19T01:52:20.394Z,10.60
2018-07-19T01:54:49.768Z,11.10
2018-07-19T02:12:12.567Z,11.20
2018-07-19T02:46:55.771Z,14.85
2018-07-19T02:49:25.433Z,15.30
2018-07-19T02:51:54.832Z,16.10
2018-07-19T02:54:24.474Z,16.10
2018-07-19T02:56:53.744Z,15.70
2018-07-19T03:01:51.793Z,18.20
2018-07-19T03:19:12.238Z,21.00
2018-07-19T03:21:41.753Z,21.55
2018-07-19T03:24:11.234Z,23.80
2018-07-19T03:26:40.613Z,18.60
2018-07-19T03:34:07.003Z,21.45
2018-07-19T03:36:36.447Z,24.90
2018-07-19T03:46:35.157Z,24.10
2018-07-19T03:49:04.515Z,24.30
2018-07-19T03:51:34.013Z,24.90
2018-07-19T03:54:03.345Z,23.50
2018-07-19T03:56:32.728Z,24.35
2018-07-19T03:59:02.082Z,22.60
2018-07-19T04:01:31.365Z,24.10
2018-07-19T04:06:29.272Z,24.60
2018-07-19T04:08:59.014Z,25.05
2018-07-19T04:11:28.384Z,23.95
2018-07-19T04:13:57.855Z,24.10
2018-07-19T04:16:27.311Z,24.00
2018-07-19T04:18:56.790Z,22.50
2018-07-19T04:21:26.248Z,22.70
2018-07-19T04:23:56.358Z,22.80
2018-07-19T04:26:25.738Z,22.70
2018-07-19T04:28:55.109Z,22.75
2018-07-19T04:31:24.594Z,23.60
2018-07-19T04:33:54.028Z,23.00
2018-07-19T04:36:23.521Z,23.80
2018-07-19T04:38:52.973Z,23.70
2018-07-19T04:41:22.467Z,24.10
2018-07-19T04:46:20.465Z,26.25
2018-07-19T04:48:49.941Z,25.00
2018-07-19T04:51:19.548Z,24.70
2018-07-19T04:58:46.003Z,27.40
2018-07-19T05:01:15.401Z,27.60
2018-07-19T05:03:44.997Z,27.70
2018-07-19T05:06:14.613Z,27.20
2018-07-19T05:08:44.178Z,27.95
2018-07-19T05:11:13.712Z,29.20
2018-07-19T05:13:43.254Z,27.90
2018-07-19T05:16:12.803Z,31.80
2018-07-19T05:18:42.173Z,32.60
2018-07-19T05:21:11.634Z,32.97
2018-07-19T05:23:41.235Z,36.87
2018-07-19T05:26:10.652Z,34.40
2018-07-19T05:28:40.197Z,37.00
2018-07-19T05:31:09.786Z,41.67
2018-07-19T05:33:39.206Z,40.80
2018-07-19T05:36:09.217Z,47.03
2018-07-19T05:38:38.953Z,48.60
2018-07-19T05:41:08.981Z,50.73
2018-07-19T05:43:38.553Z,47.50
2018-07-19T05:46:08.009Z,47.90
2018-07-19T05:48:37.474Z,50.37
2018-07-19T05:51:07.413Z,49.87
2018-07-19T05:53:36.796Z,52.00
2018-07-19T05:56:06.240Z,50.40
2018-07-19T05:58:35.750Z,51.23
2018-07-19T06:01:05.418Z,50.10
2018-07-19T06:03:34.845Z,48.87
2018-07-19T06:06:04.636Z,48.47
2018-07-19T06:08:34.211Z,45.07
2018-07-19T06:11:03.564Z,48.17
2018-07-19T06:13:34.030Z,48.60
2018-07-19T06:16:03.503Z,45.77
2018-07-19T06:18:32.857Z,47.07
2018-07-19T06:21:02.272Z,47.40
2018-07-19T06:23:31.674Z,55.67
2018-07-19T06:26:01.130Z,63.50
2018-07-19T06:28:30.702Z,60.40
2018-07-19T06:31:00.228Z,58.90
2018-07-19T06:33:29.722Z,59.53
2018-07-19T06:35:59.558Z,54.47
2018-07-19T06:38:29.400Z,54.50
2018-07-19T06:40:58.884Z,51.50
2018-07-19T06:43:28.418Z,49.93
2018-07-19T06:45:57.864Z,51.10
2018-07-19T06:48:27.227Z,48.00
2018-07-19T06:50:56.784Z,46.77
2018-07-19T06:53:26.265Z,48.10
2018-07-19T06:55:55.595Z,48.50
2018-07-19T06:58:25.160Z,45.27
2018-07-19T07:00:54.629Z,41.35
2018-07-19T07:03:24.278Z,39.13
2018-07-19T07:05:53.740Z,35.77
2018-07-19T07:08:23.188Z,34.35
2018-07-19T07:10:52.600Z,30.27
2018-07-19T07:13:22.089Z,29.57
2018-07-19T07:15:51.596Z,30.27
2018-07-19T07:18:21.175Z,29.33
2018-07-19T07:20:50.478Z,29.23
2018-07-19T07:23:19.937Z,25.60
2018-07-19T07:25:54.900Z,25.50
2018-07-19T07:28:25.502Z,24.33
2018-07-19T07:30:54.907Z,22.23
2018-07-19T07:33:24.292Z,24.30
2018-07-19T07:35:53.886Z,20.77
2018-07-19T07:38:23.139Z,23.67
2018-07-19T07:40:52.761Z,22.03
2018-07-19T07:43:22.133Z,17.63
2018-07-19T07:45:51.692Z,18.90
2018-07-19T07:48:21.332Z,16.37
2018-07-19T07:50:50.868Z,20.13
2018-07-19T07:53:20.314Z,17.27
2018-07-19T07:55:49.906Z,15.57
2018-07-19T07:58:19.444Z,14.03
2018-07-19T08:00:48.876Z,16.13
2018-07-19T08:03:18.416Z,16.93
2018-07-19T08:05:48.055Z,18.30
2018-07-19T08:08:18.102Z,16.47
2018-07-19T08:10:47.691Z,16.03
2018-07-19T08:13:17.158Z,14.83
2018-07-19T08:15:46.692Z,14.13
2018-07-19T08:18:16.188Z,13.37
2018-07-19T08:20:45.867Z,12.30
2018-07-19T08:23:15.332Z,11.50
2018-07-19T08:25:44.798Z,12.30
2018-07-19T08:28:14.322Z,11.20
2018-07-19T08:30:43.890Z,9.60
2018-07-19T08:33:13.606Z,9.70
2018-07-19T08:35:43.133Z,9.67
2018-07-19T08:38:12.578Z,9.00
2018-07-19T08:40:42.089Z,7.23
2018-07-19T08:43:11.514Z,7.00
2018-07-19T08:45:41.069Z,5.50
2018-07-19T08:48:11.261Z,5.20
2018-07-19T08:50:40.875Z,4.47
2018-07-19T08:53:10.328Z,3.80
2018-07-19T08:55:39.676Z,3.40
2018-07-19T08:58:09.146Z,2.53
2018-07-19T09:00:38.666Z,2.27
2018-07-19T09:03:08.107Z,2.40
2018-07-19T09:05:37.599Z,2.90
2018-07-19T09:08:07.417Z,3.70
2018-07-19T09:10:37.117Z,3.47
2018-07-19T09:13:06.977Z,2.87
2018-07-19T09:15:36.511Z,3.07
2018-07-19T09:18:06.518Z,2.70
2018-07-19T09:20:35.957Z,3.87
2018-07-19T09:23:05.533Z,3.80
2018-07-19T09:25:35.243Z,3.27
2018-07-19T09:28:04.784Z,3.23
2018-07-19T09:30:34.327Z,3.40
2018-07-19T09:33:03.857Z,3.50
2018-07-19T09:35:33.351Z,3.10
2018-07-19T09:38:03.079Z,3.33
2018-07-19T09:40:32.886Z,3.27
2018-07-19T09:43:02.595Z,2.90
2018-07-19T09:45:32.215Z,3.00
2018-07-19T09:48:01.751Z,2.83
2018-07-19T09:50:31.389Z,2.83
2018-07-19T09:53:00.823Z,3.60
2018-07-19T09:55:30.369Z,3.40
2018-07-19T09:57:59.839Z,3.00
2018-07-19T10:00:34.701Z,3.43
2018-07-19T10:03:04.386Z,3.80
2018-07-19T10:05:34.226Z,3.23
2018-07-19T10:08:03.844Z,2.90
2018-07-19T10:10:33.669Z,3.40
2018-07-19T10:13:03.129Z,3.23
2018-07-19T10:15:32.731Z,2.70
2018-07-19T10:27:52.132Z,3.50
2018-07-19T10:30:21.704Z,2.10
2018-07-19T10:32:51.294Z,2.20
2018-07-19T10:35:20.899Z,2.30
2018-07-19T10:37:50.384Z,2.20
2018-07-19T10:40:19.968Z,2.60
2018-07-19T10:42:49.622Z,3.50
2018-07-19T10:45:19.330Z,3.30
2018-07-19T10:47:48.790Z,3.23
2018-07-19T10:50:18.730Z,3.47
2018-07-19T10:52:48.114Z,3.20
2018-07-19T10:55:17.856Z,3.30
2018-07-19T10:57:47.654Z,3.20
2018-07-19T11:00:17.204Z,3.07
2018-07-19T11:02:46.694Z,3.00
2018-07-19T11:05:16.439Z,2.70
2018-07-19T11:07:46.115Z,3.03
2018-07-19T11:10:15.521Z,2.70
2018-07-19T11:12:45.299Z,2.47
2018-07-19T11:15:14.888Z,2.70
2018-07-19T11:17:44.451Z,2.70
2018-07-19T11:20:13.865Z,2.97
2018-07-19T11:22:43.401Z,3.20
2018-07-19T11:25:12.982Z,2.90
2018-07-19T11:27:42.470Z,3.70
2018-07-19T11:30:11.989Z,3.20
2018-07-19T11:32:41.439Z,2.97
2018-07-19T11:35:10.932Z,3.00
2018-07-19T11:37:40.631Z,3.17
2018-07-19T11:40:10.083Z,3.50
2018-07-19T11:42:39.615Z,3.87
2018-07-19T11:45:09.194Z,3.93
2018-07-19T11:47:38.761Z,3.93
2018-07-19T11:50:08.189Z,3.63
2018-07-19T11:52:37.787Z,4.23
2018-07-19T11:55:07.156Z,3.50
2018-07-19T11:57:36.599Z,3.37
2018-07-19T12:00:06.302Z,3.50
2018-07-19T12:02:35.773Z,4.43
2018-07-19T12:05:05.240Z,3.70
2018-07-19T12:07:34.794Z,3.70
2018-07-19T12:10:04.400Z,3.60
2018-07-19T12:12:33.922Z,3.50
2018-07-19T12:15:03.372Z,3.73
2018-07-19T12:17:32.766Z,3.50
2018-07-19T12:20:02.129Z,3.50
2018-07-19T12:22:31.773Z,3.27
2018-07-19T12:25:01.224Z,3.63
2018-07-19T12:27:30.976Z,3.25
2018-07-19T12:30:00.436Z,3.42
2018-07-19T12:32:30.220Z,3.35
2018-07-19T12:34:59.774Z,3.70
2018-07-19T12:37:29.366Z,3.30
2018-07-19T12:39:58.921Z,2.80
2018-07-19T12:42:28.571Z,2.80
2018-07-19T12:45:02.932Z,3.00
2018-07-19T12:47:32.384Z,2.95
2018-07-19T12:50:01.834Z,2.80
2018-07-19T12:52:31.962Z,2.62
2018-07-19T12:55:01.426Z,2.90
2018-07-19T12:57:30.948Z,2.92
2018-07-19T13:00:01.502Z,2.58
2018-07-19T13:02:32.099Z,2.90
2018-07-19T13:05:01.707Z,2.60
2018-07-19T13:07:31.239Z,2.67
2018-07-19T13:10:06.776Z,2.30
2018-07-19T13:12:36.539Z,3.07
2018-07-19T13:15:07.021Z,3.03
2018-07-19T13:17:36.891Z,3.07
2018-07-19T13:20:06.475Z,2.40
2018-07-19T13:22:36.318Z,2.30
2018-07-19T13:25:06.139Z,2.30
2018-07-19T13:27:35.783Z,2.40
2018-07-19T13:30:05.705Z,2.50
2018-07-19T13:32:35.484Z,2.98
2018-07-19T13:35:05.334Z,2.70
2018-07-19T13:37:35.031Z,2.45
2018-07-19T13:40:04.851Z,2.30
2018-07-19T13:42:34.341Z,2.40
2018-07-19T13:45:04.355Z,2.37
2018-07-19T13:47:34.102Z,2.45
2018-07-19T13:50:04.130Z,2.30
2018-07-19T13:52:44.633Z,2.55
2018-07-19T13:55:14.374Z,2.75
2018-07-19T13:57:44.144Z,2.77
2018-07-19T14:00:13.801Z,2.57
2018-07-19T14:02:43.509Z,2.80
2018-07-19T14:05:13.358Z,2.50
2018-07-19T14:07:43.085Z,2.95
2018-07-19T14:10:12.855Z,2.60
2018-07-19T14:12:42.809Z,2.70
2018-07-19T14:15:12.580Z,2.57
2018-07-19T14:17:42.350Z,3.10
2018-07-19T14:20:12.108Z,2.50
2018-07-19T14:22:41.732Z,2.62
2018-07-19T14:25:11.532Z,2.62
2018-07-19T14:27:41.206Z,2.77
2018-07-19T14:30:10.884Z,2.27
2018-07-19T14:32:40.650Z,2.42
2018-07-19T14:35:10.393Z,2.60
2018-07-19T14:37:40.018Z,2.20
2018-07-19T14:40:09.730Z,2.75
2018-07-19T14:42:39.331Z,2.70
2018-07-19T14:45:09.234Z,2.55
2018-07-19T14:47:38.950Z,2.77
2018-07-19T14:50:08.723Z,2.58
2018-07-19T14:52:38.437Z,2.08
2018-07-19T14:55:08.420Z,2.27
2018-07-19T14:57:38.201Z,2.33
2018-07-19T15:00:08.829Z,2.12
2018-07-19T15:02:38.555Z,2.55
2018-07-19T15:05:08.252Z,2.47
2018-07-19T15:07:38.044Z,2.27
2018-07-19T15:10:07.686Z,2.30
2018-07-19T15:12:37.436Z,2.65
2018-07-19T15:15:07.696Z,2.77
2018-07-19T15:17:37.395Z,2.20
2018-07-19T15:20:07.331Z,2.20
2018-07-19T15:22:37.150Z,2.60
2018-07-19T15:25:06.903Z,2.92
2018-07-19T15:27:36.797Z,2.12
2018-07-19T15:30:06.819Z,2.30
2018-07-19T15:32:36.542Z,2.37
2018-07-19T15:35:06.186Z,2.53
2018-07-19T15:37:35.875Z,2.42
2018-07-19T15:40:06.155Z,2.60
2018-07-19T15:42:35.848Z,2.40
2018-07-19T15:45:06.341Z,2.40
2018-07-19T15:47:36.160Z,2.30
2018-07-19T15:50:06.209Z,2.37
2018-07-19T15:52:35.917Z,2.20
2018-07-19T15:55:06.007Z,2.30
2018-07-19T15:57:35.741Z,2.20
2018-07-19T16:00:06.151Z,2.20
2018-07-19T16:02:35.944Z,2.10
2018-07-19T16:05:05.832Z,2.40
2018-07-19T16:07:35.632Z,1.90
2018-07-19T16:10:05.603Z,2.00
2018-07-19T16:12:35.366Z,2.07
2018-07-19T16:15:05.467Z,1.85
2018-07-19T16:17:35.722Z,1.90
2018-07-19T16:20:08.373Z,2.17
2018-07-19T16:22:38.528Z,2.05
2018-07-19T16:25:08.340Z,1.95
2018-07-19T16:27:38.076Z,1.60
2018-07-19T16:30:08.030Z,1.80
2018-07-19T16:32:37.911Z,2.30
2018-07-19T16:37:39.672Z,1.60
2018-07-19T16:40:09.647Z,1.80
2018-07-19T16:42:39.961Z,1.80
2018-07-19T16:45:10.180Z,1.63
2018-07-19T16:47:40.248Z,1.60
2018-07-19T16:50:10.158Z,1.60
2018-07-19T16:52:40.352Z,1.60
2018-07-19T16:55:10.943Z,1.70
2018-07-19T16:57:40.900Z,1.60
2018-07-19T17:00:10.856Z,1.30
2018-07-19T17:02:40.449Z,1.70
2018-07-19T17:05:09.670Z,1.47
2018-07-19T17:07:39.152Z,1.50
2018-07-19T17:10:08.649Z,1.43
2018-07-19T17:12:38.584Z,1.90
2018-07-19T17:15:08.068Z,1.93
2018-07-19T17:17:37.735Z,1.63
2018-07-19T17:20:07.211Z,1.40
2018-07-19T17:22:37.475Z,1.50
2018-07-19T17:25:07.249Z,1.57
2018-07-19T17:27:36.797Z,1.63
2018-07-19T17:30:06.989Z,1.60
2018-07-19T17:32:36.307Z,1.50
2018-07-19T17:35:06.159Z,1.40
2018-07-19T17:37:35.787Z,1.40
2018-07-19T17:40:05.864Z,1.30
2018-07-19T17:42:35.788Z,1.40
2018-07-19T17:45:05.706Z,1.90
2018-07-19T17:47:35.229Z,1.40
2018-07-19T17:50:04.935Z,1.53
2018-07-19T17:52:34.500Z,1.37
2018-07-19T17:55:04.538Z,1.40
2018-07-19T17:57:34.015Z,1.53
2018-07-19T18:00:02.988Z,1.67
2018-07-19T18:02:32.501Z,1.20
2018-07-19T18:05:02.438Z,1.10
2018-07-19T18:07:31.386Z,1.50
2018-07-19T18:10:00.637Z,1.37
2018-07-19T18:12:30.153Z,1.70
2018-07-19T18:14:59.500Z,1.30
2018-07-19T18:17:28.821Z,1.33
2018-07-19T18:19:59.124Z,1.30
2018-07-19T18:22:28.774Z,1.30
2018-07-19T18:24:58.113Z,1.30
2018-07-19T18:27:27.546Z,1.70
2018-07-19T18:29:57.189Z,1.30
2018-07-19T18:32:26.994Z,1.33
2018-07-19T18:34:56.571Z,1.30
2018-07-19T18:37:26.050Z,1.50
2018-07-19T18:39:55.394Z,1.40
2018-07-19T18:42:25.030Z,1.23
2018-07-19T18:44:54.568Z,1.30
2018-07-19T18:47:23.872Z,0.90
2018-07-19T18:49:53.306Z,1.60
2018-07-19T18:52:22.647Z,1.50
2018-07-19T18:54:58.865Z,1.40
2018-07-19T18:57:29.143Z,1.70
2018-07-19T18:59:59.545Z,1.40
2018-07-19T19:02:28.820Z,1.70
2018-07-19T19:04:59.000Z,1.80
2018-07-19T19:07:28.507Z,1.40
2018-07-19T19:09:58.159Z,2.00
2018-07-19T19:12:27.769Z,1.50
2018-07-19T19:14:57.219Z,1.40
2018-07-19T19:17:26.551Z,1.50
2018-07-19T19:19:56.529Z,1.70
2018-07-19T19:22:26.583Z,1.70
2018-07-19T19:24:56.273Z,1.90
2018-07-19T19:27:26.001Z,1.90
2018-07-19T19:29:56.881Z,2.00
2018-07-19T19:32:26.665Z,1.80
2018-07-19T19:34:56.306Z,1.90
2018-07-19T19:37:25.637Z,2.30
2018-07-19T19:39:55.630Z,2.23
2018-07-19T19:42:25.679Z,2.17
2018-07-19T19:44:55.353Z,2.10
2018-07-19T19:47:25.538Z,2.07
2018-07-19T19:49:55.195Z,2.30
2018-07-19T19:52:25.120Z,2.70
2018-07-19T19:54:54.502Z,3.17
2018-07-19T19:57:23.971Z,3.07
2018-07-19T19:59:53.646Z,3.33
2018-07-19T20:02:23.416Z,3.33
2018-07-19T20:04:52.475Z,3.00
2018-07-19T20:07:22.478Z,3.20
2018-07-19T20:09:52.199Z,3.30
2018-07-19T20:12:21.860Z,3.40
2018-07-19T20:14:51.156Z,3.30
2018-07-19T20:17:20.739Z,3.80
2018-07-19T20:19:50.132Z,4.53
2018-07-19T20:22:19.555Z,4.23
2018-07-19T20:24:49.323Z,4.37
2018-07-19T20:27:19.309Z,4.63
2018-07-19T20:29:49.577Z,4.27
2018-07-19T20:32:19.132Z,4.10
2018-07-19T20:34:48.910Z,4.30
2018-07-19T20:37:18.631Z,4.10
2018-07-19T20:39:48.183Z,4.47
2018-07-19T20:42:18.658Z,5.10
2018-07-19T20:44:48.330Z,5.00
2018-07-19T20:47:17.874Z,5.10
2018-07-19T20:49:47.476Z,5.80
2018-07-19T20:52:17.347Z,5.90
2018-07-19T20:54:47.133Z,5.70
2018-07-19T20:57:16.539Z,5.70
2018-07-19T20:59:46.230Z,5.83
2018-07-19T21:02:15.907Z,6.57
2018-07-19T21:04:45.544Z,6.37
2018-07-19T21:07:15.775Z,6.20
2018-07-19T21:09:46.108Z,5.90
2018-07-19T21:12:15.653Z,6.10
2018-07-19T21:14:45.341Z,5.37
2018-07-19T21:17:14.805Z,7.30
2018-07-19T21:19:43.813Z,6.30
2018-07-19T21:22:13.190Z,6.50
2018-07-19T21:24:42.872Z,7.10
2018-07-19T21:27:13.489Z,7.13
2018-07-19T21:29:42.959Z,8.43
2018-07-19T21:32:12.580Z,8.33
2018-07-19T21:34:42.236Z,7.57
2018-07-19T21:37:12.383Z,9.17
2018-07-19T21:39:41.754Z,9.33
2018-07-19T21:42:11.739Z,8.93
2018-07-19T21:44:41.344Z,9.23
2018-07-19T21:47:10.686Z,9.70
2018-07-19T21:49:40.929Z,10.27
2018-07-19T21:52:11.071Z,10.53
2018-07-19T21:54:40.705Z,10.97
2018-07-19T21:57:10.799Z,9.73
2018-07-19T21:59:39.899Z,9.43
2018-07-19T22:02:08.834Z,9.50
2018-07-19T22:04:38.413Z,8.80
2018-07-19T22:07:07.987Z,8.80
2018-07-19T22:09:37.931Z,9.13
2018-07-19T22:12:07.522Z,10.83
2018-07-19T22:14:37.435Z,11.83
2018-07-19T22:17:07.338Z,11.77
2018-07-19T22:19:36.966Z,11.87
2018-07-19T22:22:06.744Z,12.53
2018-07-19T22:24:36.599Z,12.43
2018-07-19T22:27:06.120Z,11.63
2018-07-19T22:29:35.737Z,10.87
2018-07-19T22:32:05.585Z,11.37
2018-07-19T22:34:35.074Z,11.83
2018-07-19T22:37:04.800Z,10.10
2018-07-19T22:39:34.825Z,9.53
2018-07-19T22:42:04.438Z,9.70
2018-07-19T22:44:33.915Z,9.13
2018-07-19T22:47:03.929Z,9.20
2018-07-19T22:49:33.685Z,9.20
2018-07-19T22:52:03.934Z,9.27
2018-07-19T22:54:33.697Z,9.37
2018-07-19T22:57:03.497Z,8.57
2018-07-19T22:59:33.350Z,9.40
2018-07-19T23:02:02.890Z,10.27
2018-07-19T23:04:33.179Z,10.40
2018-07-19T23:07:03.599Z,10.50
2018-07-19T23:09:33.161Z,10.30
2018-07-19T23:12:02.642Z,12.13
2018-07-19T23:14:36.751Z,10.77
2018-07-19T23:17:06.575Z,9.73
2018-07-19T23:19:36.236Z,10.47
2018-07-19T23:22:05.979Z,9.80
2018-07-19T23:24:35.481Z,13.10
2018-07-19T23:27:05.505Z,11.37
2018-07-19T23:29:35.216Z,10.97
2018-07-19T23:32:05.111Z,12.10
2018-07-19T23:34:35.244Z,10.75
2018-07-19T23:37:11.166Z,10.30
2018-07-19T23:39:45.589Z,9.90
2018-07-19T23:42:30.479Z,10.40
2018-07-19T23:45:05.315Z,10.00
2018-07-19T23:47:37.897Z,9.87
2018-07-19T23:50:07.782Z,9.60
2018-07-19T23:52:37.267Z,10.00
2018-07-19T23:55:07.006Z,10.53
2018-07-19T23:57:36.537Z,11.20
